sensor_id;sensor_type;location;lat;lon;timestamp;P1;durP1;ratioP1;P2;durP2;ratioP2
50104;SDS011;47690;39.202;-77.198;2023-04-01T00:02:00;2.63;;;2.40;;
50104;SDS011;47690;39.202;-77.198;2023-04-01T00:04:29;3.63;;;2.90;;
50104;SDS011;47690;39.202;-77.198;2023-04-01T00:07:00;3.08;;;2.60;;
50104;SDS011;47690;39.202;-77.198;2023-04-01T00:09:30;2.70;;;2.40;;
50104;SDS011;47690;39.202;-77.198;2023-04-01T00:11:59;3.55;;;2.72;;
50104;SDS011;47690;39.202;-77.198;2023-04-01T00:14:28;2.92;;;2.53;;
50104;SDS011;47690;39.202;-77.198;2023-04-01T00:16:59;2.95;;;2.65;;
50104;SDS011;47690;39.202;-77.198;2023-04-01T00:19:29;3.00;;;2.45;;
50104;SDS011;47690;39.202;-77.198;2023-04-01T00:22:00;3.70;;;2.50;;
50104;SDS011;47690;39.202;-77.198;2023-04-01T00:24:29;4.40;;;2.80;;
50104;SDS011;47690;39.202;-77.198;2023-04-01T00:27:00;2.78;;;2.58;;
50104;SDS011;47690;39.202;-77.198;2023-04-01T00:29:29;3.15;;;2.70;;
50104;SDS011;47690;39.202;-77.198;2023-04-01T00:32:00;3.75;;;2.55;;
50104;SDS011;47690;39.202;-77.198;2023-04-01T00:34:29;4.00;;;2.60;;
50104;SDS011;47690;39.202;-77.198;2023-04-01T00:37:00;3.10;;;2.60;;
50104;SDS011;47690;39.202;-77.198;2023-04-01T00:39:29;2.92;;;2.58;;
50104;SDS011;47690;39.202;-77.198;2023-04-01T00:42:01;3.00;;;2.70;;
50104;SDS011;47690;39.202;-77.198;2023-04-01T00:44:31;5.00;;;2.70;;
50104;SDS011;47690;39.202;-77.198;2023-04-01T00:47:02;3.25;;;2.80;;
50104;SDS011;47690;39.202;-77.198;2023-04-01T00:49:32;2.90;;;2.58;;
50104;SDS011;47690;39.202;-77.198;2023-04-01T00:52:08;2.70;;;2.50;;
50104;SDS011;47690;39.202;-77.198;2023-04-01T00:54:41;3.40;;;2.65;;
50104;SDS011;47690;39.202;-77.198;2023-04-01T00:57:25;3.35;;;2.58;;
50104;SDS011;47690;39.202;-77.198;2023-04-01T01:00:04;3.45;;;2.80;;
50104;SDS011;47690;39.202;-77.198;2023-04-01T01:02:45;2.50;;;2.30;;
50104;SDS011;47690;39.202;-77.198;2023-04-01T01:05:19;2.65;;;2.45;;
50104;SDS011;47690;39.202;-77.198;2023-04-01T01:08:15;2.97;;;2.67;;
50104;SDS011;47690;39.202;-77.198;2023-04-01T01:11:00;3.13;;;2.55;;
50104;SDS011;47690;39.202;-77.198;2023-04-01T01:14:17;3.08;;;2.60;;
50104;SDS011;47690;39.202;-77.198;2023-04-01T01:16:23;2.97;;;2.58;;
50104;SDS011;47690;39.202;-77.198;2023-04-01T01:19:07;2.90;;;2.60;;
50104;SDS011;47690;39.202;-77.198;2023-04-01T01:22:14;3.55;;;2.70;;
50104;SDS011;47690;39.202;-77.198;2023-04-01T01:25:04;2.67;;;2.33;;
50104;SDS011;47690;39.202;-77.198;2023-04-01T01:28:15;2.97;;;2.67;;
50104;SDS011;47690;39.202;-77.198;2023-04-01T01:36:31;2.72;;;2.47;;
50104;SDS011;47690;39.202;-77.198;2023-04-01T01:39:08;2.78;;;2.50;;
50104;SDS011;47690;39.202;-77.198;2023-04-01T01:41:39;2.83;;;2.45;;
50104;SDS011;47690;39.202;-77.198;2023-04-01T01:44:11;2.70;;;2.30;;
50104;SDS011;47690;39.202;-77.198;2023-04-01T01:46:42;2.60;;;2.15;;
50104;SDS011;47690;39.202;-77.198;2023-04-01T01:49:14;3.17;;;2.58;;
50104;SDS011;47690;39.202;-77.198;2023-04-01T01:51:46;2.50;;;2.30;;
50104;SDS011;47690;39.202;-77.198;2023-04-01T01:54:17;2.75;;;2.45;;
50104;SDS011;47690;39.202;-77.198;2023-04-01T01:56:48;2.88;;;2.42;;
50104;SDS011;47690;39.202;-77.198;2023-04-01T01:59:20;3.60;;;2.33;;
50104;SDS011;47690;39.202;-77.198;2023-04-01T02:01:54;3.08;;;2.42;;
50104;SDS011;47690;39.202;-77.198;2023-04-01T02:04:29;2.50;;;2.30;;
50104;SDS011;47690;39.202;-77.198;2023-04-01T02:07:02;2.50;;;2.30;;
50104;SDS011;47690;39.202;-77.198;2023-04-01T02:09:34;3.15;;;2.40;;
50104;SDS011;47690;39.202;-77.198;2023-04-01T02:12:04;2.70;;;2.40;;
50104;SDS011;47690;39.202;-77.198;2023-04-01T02:14:45;2.80;;;2.42;;
50104;SDS011;47690;39.202;-77.198;2023-04-01T02:17:22;2.63;;;2.40;;
50104;SDS011;47690;39.202;-77.198;2023-04-01T02:19:57;3.17;;;2.05;;
50104;SDS011;47690;39.202;-77.198;2023-04-01T02:22:38;2.40;;;2.20;;
50104;SDS011;47690;39.202;-77.198;2023-04-01T02:25:13;3.30;;;2.30;;
50104;SDS011;47690;39.202;-77.198;2023-04-01T02:27:47;2.87;;;2.40;;
50104;SDS011;47690;39.202;-77.198;2023-04-01T02:30:16;2.50;;;2.28;;
50104;SDS011;47690;39.202;-77.198;2023-04-01T02:32:47;2.80;;;2.20;;
50104;SDS011;47690;39.202;-77.198;2023-04-01T02:35:18;2.63;;;2.10;;
50104;SDS011;47690;39.202;-77.198;2023-04-01T02:37:48;2.70;;;2.40;;
50104;SDS011;47690;39.202;-77.198;2023-04-01T02:40:18;2.97;;;2.25;;
50104;SDS011;47690;39.202;-77.198;2023-04-01T02:42:49;2.75;;;2.25;;
50104;SDS011;47690;39.202;-77.198;2023-04-01T02:45:22;2.75;;;2.40;;
50104;SDS011;47690;39.202;-77.198;2023-04-01T02:47:51;4.13;;;2.70;;
50104;SDS011;47690;39.202;-77.198;2023-04-01T02:50:20;2.60;;;2.40;;
50104;SDS011;47690;39.202;-77.198;2023-04-01T02:52:49;2.90;;;2.50;;
50104;SDS011;47690;39.202;-77.198;2023-04-01T02:55:19;2.83;;;2.38;;
50104;SDS011;47690;39.202;-77.198;2023-04-01T02:57:48;3.65;;;2.40;;
50104;SDS011;47690;39.202;-77.198;2023-04-01T03:00:17;3.22;;;2.60;;
50104;SDS011;47690;39.202;-77.198;2023-04-01T03:02:46;3.42;;;2.45;;
50104;SDS011;47690;39.202;-77.198;2023-04-01T03:05:15;2.65;;;2.30;;
50104;SDS011;47690;39.202;-77.198;2023-04-01T03:07:44;3.05;;;2.50;;
50104;SDS011;47690;39.202;-77.198;2023-04-01T03:10:13;2.92;;;2.58;;
50104;SDS011;47690;39.202;-77.198;2023-04-01T03:12:42;2.88;;;2.42;;
50104;SDS011;47690;39.202;-77.198;2023-04-01T03:15:12;3.33;;;2.50;;
50104;SDS011;47690;39.202;-77.198;2023-04-01T03:17:44;3.17;;;2.40;;
50104;SDS011;47690;39.202;-77.198;2023-04-01T03:20:14;3.88;;;2.70;;
50104;SDS011;47690;39.202;-77.198;2023-04-01T03:22:44;2.92;;;2.63;;
50104;SDS011;47690;39.202;-77.198;2023-04-01T03:25:14;3.22;;;2.90;;
50104;SDS011;47690;39.202;-77.198;2023-04-01T03:27:43;3.33;;;2.60;;
50104;SDS011;47690;39.202;-77.198;2023-04-01T03:30:12;3.40;;;2.67;;
50104;SDS011;47690;39.202;-77.198;2023-04-01T03:32:49;4.28;;;2.65;;
50104;SDS011;47690;39.202;-77.198;2023-04-01T03:35:19;3.10;;;2.45;;
50104;SDS011;47690;39.202;-77.198;2023-04-01T03:37:52;3.00;;;2.60;;
50104;SDS011;47690;39.202;-77.198;2023-04-01T03:40:21;2.80;;;2.60;;
50104;SDS011;47690;39.202;-77.198;2023-04-01T03:42:52;3.03;;;2.60;;
50104;SDS011;47690;39.202;-77.198;2023-04-01T03:45:21;2.78;;;2.50;;
50104;SDS011;47690;39.202;-77.198;2023-04-01T03:47:50;4.60;;;2.70;;
50104;SDS011;47690;39.202;-77.198;2023-04-01T03:50:20;4.28;;;2.83;;
50104;SDS011;47690;39.202;-77.198;2023-04-01T03:52:49;3.38;;;2.65;;
50104;SDS011;47690;39.202;-77.198;2023-04-01T03:55:19;3.53;;;2.90;;
50104;SDS011;47690;39.202;-77.198;2023-04-01T03:57:48;3.58;;;2.78;;
50104;SDS011;47690;39.202;-77.198;2023-04-01T04:00:19;4.35;;;2.75;;
50104;SDS011;47690;39.202;-77.198;2023-04-01T04:05:26;3.63;;;2.60;;
50104;SDS011;47690;39.202;-77.198;2023-04-01T04:07:58;3.50;;;2.70;;
50104;SDS011;47690;39.202;-77.198;2023-04-01T04:10:29;3.13;;;2.50;;
50104;SDS011;47690;39.202;-77.198;2023-04-01T04:12:59;3.03;;;2.65;;
50104;SDS011;47690;39.202;-77.198;2023-04-01T04:15:32;3.17;;;2.78;;
50104;SDS011;47690;39.202;-77.198;2023-04-01T04:18:01;3.80;;;3.00;;
50104;SDS011;47690;39.202;-77.198;2023-04-01T04:20:30;4.00;;;2.97;;
50104;SDS011;47690;39.202;-77.198;2023-04-01T04:23:00;4.03;;;2.92;;
50104;SDS011;47690;39.202;-77.198;2023-04-01T04:25:28;3.67;;;3.17;;
50104;SDS011;47690;39.202;-77.198;2023-04-01T04:27:59;3.00;;;2.70;;
50104;SDS011;47690;39.202;-77.198;2023-04-01T04:30:29;3.00;;;2.70;;
50104;SDS011;47690;39.202;-77.198;2023-04-01T04:32:59;4.93;;;3.30;;
50104;SDS011;47690;39.202;-77.198;2023-04-01T04:35:29;3.53;;;3.00;;
50104;SDS011;47690;39.202;-77.198;2023-04-01T04:37:59;3.60;;;3.05;;
50104;SDS011;47690;39.202;-77.198;2023-04-01T04:40:29;3.55;;;3.00;;
50104;SDS011;47690;39.202;-77.198;2023-04-01T04:42:59;4.15;;;2.92;;
50104;SDS011;47690;39.202;-77.198;2023-04-01T04:45:30;3.88;;;3.10;;
50104;SDS011;47690;39.202;-77.198;2023-04-01T04:48:00;4.57;;;3.03;;
50104;SDS011;47690;39.202;-77.198;2023-04-01T04:50:29;3.30;;;3.00;;
50104;SDS011;47690;39.202;-77.198;2023-04-01T04:52:59;3.25;;;2.95;;
50104;SDS011;47690;39.202;-77.198;2023-04-01T04:55:30;3.78;;;3.15;;
50104;SDS011;47690;39.202;-77.198;2023-04-01T04:58:18;3.45;;;2.80;;
50104;SDS011;47690;39.202;-77.198;2023-04-01T05:00:49;4.63;;;3.03;;
50104;SDS011;47690;39.202;-77.198;2023-04-01T05:03:25;3.55;;;3.08;;
50104;SDS011;47690;39.202;-77.198;2023-04-01T05:05:55;4.25;;;3.17;;
50104;SDS011;47690;39.202;-77.198;2023-04-01T05:08:26;4.47;;;2.88;;
50104;SDS011;47690;39.202;-77.198;2023-04-01T05:10:55;3.40;;;2.88;;
50104;SDS011;47690;39.202;-77.198;2023-04-01T05:13:28;3.78;;;3.13;;
50104;SDS011;47690;39.202;-77.198;2023-04-01T05:15:59;3.83;;;3.17;;
50104;SDS011;47690;39.202;-77.198;2023-04-01T05:18:29;3.72;;;3.10;;
50104;SDS011;47690;39.202;-77.198;2023-04-01T05:20:59;4.18;;;3.00;;
50104;SDS011;47690;39.202;-77.198;2023-04-01T05:23:30;4.82;;;3.33;;
50104;SDS011;47690;39.202;-77.198;2023-04-01T05:26:07;3.60;;;3.20;;
50104;SDS011;47690;39.202;-77.198;2023-04-01T05:28:38;3.72;;;3.28;;
50104;SDS011;47690;39.202;-77.198;2023-04-01T05:31:08;3.60;;;3.20;;
50104;SDS011;47690;39.202;-77.198;2023-04-01T05:33:39;4.22;;;3.10;;
50104;SDS011;47690;39.202;-77.198;2023-04-01T05:36:10;5.13;;;3.50;;
50104;SDS011;47690;39.202;-77.198;2023-04-01T05:38:42;5.72;;;3.30;;
50104;SDS011;47690;39.202;-77.198;2023-04-01T05:41:16;3.78;;;3.35;;
50104;SDS011;47690;39.202;-77.198;2023-04-01T05:43:45;4.93;;;3.15;;
50104;SDS011;47690;39.202;-77.198;2023-04-01T05:46:34;3.97;;;3.05;;
50104;SDS011;47690;39.202;-77.198;2023-04-01T05:49:20;3.35;;;2.92;;
50104;SDS011;47690;39.202;-77.198;2023-04-01T05:51:50;4.38;;;3.45;;
50104;SDS011;47690;39.202;-77.198;2023-04-01T05:54:19;3.85;;;3.17;;
50104;SDS011;47690;39.202;-77.198;2023-04-01T05:56:49;3.33;;;3.03;;
50104;SDS011;47690;39.202;-77.198;2023-04-01T05:59:19;4.25;;;3.13;;
50104;SDS011;47690;39.202;-77.198;2023-04-01T06:01:49;3.50;;;3.20;;
50104;SDS011;47690;39.202;-77.198;2023-04-01T06:04:20;3.80;;;3.28;;
50104;SDS011;47690;39.202;-77.198;2023-04-01T06:06:49;3.55;;;3.22;;
50104;SDS011;47690;39.202;-77.198;2023-04-01T06:09:27;3.90;;;3.45;;
50104;SDS011;47690;39.202;-77.198;2023-04-01T06:12:43;6.22;;;3.53;;
50104;SDS011;47690;39.202;-77.198;2023-04-01T06:15:18;4.00;;;3.38;;
50104;SDS011;47690;39.202;-77.198;2023-04-01T06:23:35;3.72;;;3.08;;
50104;SDS011;47690;39.202;-77.198;2023-04-01T06:50:11;4.38;;;3.38;;
50104;SDS011;47690;39.202;-77.198;2023-04-01T06:53:18;4.03;;;3.40;;
50104;SDS011;47690;39.202;-77.198;2023-04-01T06:56:11;4.07;;;3.67;;
50104;SDS011;47690;39.202;-77.198;2023-04-01T06:59:00;4.25;;;3.63;;
50104;SDS011;47690;39.202;-77.198;2023-04-01T07:01:42;4.80;;;3.45;;
50104;SDS011;47690;39.202;-77.198;2023-04-01T07:04:23;3.80;;;3.38;;
50104;SDS011;47690;39.202;-77.198;2023-04-01T07:07:05;4.72;;;3.58;;
50104;SDS011;47690;39.202;-77.198;2023-04-01T07:09:55;5.45;;;3.75;;
50104;SDS011;47690;39.202;-77.198;2023-04-01T07:12:33;3.80;;;3.33;;
50104;SDS011;47690;39.202;-77.198;2023-04-01T07:17:47;4.47;;;3.83;;
50104;SDS011;47690;39.202;-77.198;2023-04-01T07:23:00;4.13;;;3.72;;
50104;SDS011;47690;39.202;-77.198;2023-04-01T07:25:44;6.55;;;4.28;;
50104;SDS011;47690;39.202;-77.198;2023-04-01T07:28:36;4.88;;;4.38;;
50104;SDS011;47690;39.202;-77.198;2023-04-01T07:31:19;5.70;;;4.68;;
50104;SDS011;47690;39.202;-77.198;2023-04-01T07:34:09;4.55;;;4.15;;
50104;SDS011;47690;39.202;-77.198;2023-04-01T07:45:22;6.18;;;4.80;;
50104;SDS011;47690;39.202;-77.198;2023-04-01T07:50:41;5.63;;;4.60;;
50104;SDS011;47690;39.202;-77.198;2023-04-01T08:05:27;5.68;;;4.55;;
50104;SDS011;47690;39.202;-77.198;2023-04-01T08:14:45;4.88;;;4.38;;
50104;SDS011;47690;39.202;-77.198;2023-04-01T08:17:58;4.72;;;4.10;;
50104;SDS011;47690;39.202;-77.198;2023-04-01T08:20:41;4.50;;;4.10;;
50104;SDS011;47690;39.202;-77.198;2023-04-01T08:23:15;6.03;;;4.32;;
50104;SDS011;47690;39.202;-77.198;2023-04-01T08:31:23;5.78;;;4.50;;
50104;SDS011;47690;39.202;-77.198;2023-04-01T08:34:01;7.13;;;4.43;;
50104;SDS011;47690;39.202;-77.198;2023-04-01T08:36:36;5.45;;;4.43;;
50104;SDS011;47690;39.202;-77.198;2023-04-01T08:39:17;5.28;;;4.38;;
50104;SDS011;47690;39.202;-77.198;2023-04-01T08:45:11;5.00;;;4.40;;
50104;SDS011;47690;39.202;-77.198;2023-04-01T08:56:47;6.22;;;4.50;;
50104;SDS011;47690;39.202;-77.198;2023-04-01T09:03:19;4.80;;;3.80;;
50104;SDS011;47690;39.202;-77.198;2023-04-01T09:09:03;5.07;;;3.87;;
50104;SDS011;47690;39.202;-77.198;2023-04-01T09:29:26;4.55;;;3.83;;
50104;SDS011;47690;39.202;-77.198;2023-04-01T09:35:22;4.22;;;3.75;;
50104;SDS011;47690;39.202;-77.198;2023-04-01T09:43:54;5.82;;;3.78;;
50104;SDS011;47690;39.202;-77.198;2023-04-01T09:59:08;6.47;;;3.30;;
50104;SDS011;47690;39.202;-77.198;2023-04-01T11:09:06;4.53;;;3.15;;
50104;SDS011;47690;39.202;-77.198;2023-04-01T11:12:03;3.17;;;2.88;;
50104;SDS011;47690;39.202;-77.198;2023-04-01T11:18:21;4.53;;;3.00;;
50104;SDS011;47690;39.202;-77.198;2023-04-01T11:33:14;3.20;;;2.70;;
50104;SDS011;47690;39.202;-77.198;2023-04-01T11:43:18;3.90;;;2.60;;
50104;SDS011;47690;39.202;-77.198;2023-04-01T11:46:00;3.83;;;2.60;;
50104;SDS011;47690;39.202;-77.198;2023-04-01T11:52:00;4.07;;;2.50;;
50104;SDS011;47690;39.202;-77.198;2023-04-01T12:00:34;4.43;;;2.60;;
50104;SDS011;47690;39.202;-77.198;2023-04-01T12:03:32;5.05;;;2.90;;
50104;SDS011;47690;39.202;-77.198;2023-04-01T12:23:19;4.72;;;2.60;;
50104;SDS011;47690;39.202;-77.198;2023-04-01T12:26:11;3.42;;;2.58;;
50104;SDS011;47690;39.202;-77.198;2023-04-01T12:29:07;3.17;;;2.60;;
50104;SDS011;47690;39.202;-77.198;2023-04-01T12:34:41;3.92;;;2.33;;
50104;SDS011;47690;39.202;-77.198;2023-04-01T12:37:21;2.97;;;2.40;;
50104;SDS011;47690;39.202;-77.198;2023-04-01T12:48:29;3.38;;;2.28;;
50104;SDS011;47690;39.202;-77.198;2023-04-01T13:00:48;4.18;;;2.45;;
50104;SDS011;47690;39.202;-77.198;2023-04-01T13:03:43;3.28;;;2.25;;
50104;SDS011;47690;39.202;-77.198;2023-04-01T13:29:13;3.70;;;2.58;;
50104;SDS011;47690;39.202;-77.198;2023-04-01T13:35:20;3.70;;;2.50;;
50104;SDS011;47690;39.202;-77.198;2023-04-01T13:38:19;2.80;;;2.13;;
50104;SDS011;47690;39.202;-77.198;2023-04-01T13:50:33;2.58;;;2.38;;
50104;SDS011;47690;39.202;-77.198;2023-04-01T14:01:06;3.28;;;2.30;;
50104;SDS011;47690;39.202;-77.198;2023-04-01T14:07:25;3.78;;;2.20;;
50104;SDS011;47690;39.202;-77.198;2023-04-01T14:09:35;3.50;;;2.17;;
50104;SDS011;47690;39.202;-77.198;2023-04-01T14:26:50;2.65;;;2.45;;
50104;SDS011;47690;39.202;-77.198;2023-04-01T14:29:36;4.30;;;2.28;;
50104;SDS011;47690;39.202;-77.198;2023-04-01T14:32:15;2.92;;;2.30;;
50104;SDS011;47690;39.202;-77.198;2023-04-01T14:35:19;2.97;;;2.30;;
50104;SDS011;47690;39.202;-77.198;2023-04-01T14:41:19;2.90;;;2.30;;
50104;SDS011;47690;39.202;-77.198;2023-04-01T14:49:30;3.22;;;2.40;;
50104;SDS011;47690;39.202;-77.198;2023-04-01T14:54:44;3.33;;;2.45;;
50104;SDS011;47690;39.202;-77.198;2023-04-01T14:57:25;2.80;;;2.40;;
50104;SDS011;47690;39.202;-77.198;2023-04-01T15:00:01;3.30;;;2.60;;
50104;SDS011;47690;39.202;-77.198;2023-04-01T15:08:36;3.47;;;2.60;;
50104;SDS011;47690;39.202;-77.198;2023-04-01T15:34:15;2.72;;;2.42;;
50104;SDS011;47690;39.202;-77.198;2023-04-01T15:48:38;3.40;;;2.40;;
50104;SDS011;47690;39.202;-77.198;2023-04-01T15:55:00;2.78;;;2.40;;
50104;SDS011;47690;39.202;-77.198;2023-04-01T16:04:26;3.08;;;2.22;;
50104;SDS011;47690;39.202;-77.198;2023-04-01T16:10:24;4.05;;;2.70;;
50104;SDS011;47690;39.202;-77.198;2023-04-01T16:20:39;4.28;;;2.25;;
50104;SDS011;47690;39.202;-77.198;2023-04-01T16:24:23;2.72;;;2.30;;
50104;SDS011;47690;39.202;-77.198;2023-04-01T16:27:53;3.30;;;2.05;;
50104;SDS011;47690;39.202;-77.198;2023-04-01T16:39:52;4.93;;;2.55;;
50104;SDS011;47690;39.202;-77.198;2023-04-01T16:47:45;2.20;;;1.90;;
50104;SDS011;47690;39.202;-77.198;2023-04-01T16:52:15;4.35;;;2.20;;
50104;SDS011;47690;39.202;-77.198;2023-04-01T17:02:10;2.85;;;1.65;;
50104;SDS011;47690;39.202;-77.198;2023-04-01T17:04:47;2.38;;;2.10;;
50104;SDS011;47690;39.202;-77.198;2023-04-01T17:17:12;4.32;;;2.28;;
50104;SDS011;47690;39.202;-77.198;2023-04-01T17:22:58;3.30;;;2.17;;
50104;SDS011;47690;39.202;-77.198;2023-04-01T17:45:56;4.07;;;2.10;;
50104;SDS011;47690;39.202;-77.198;2023-04-01T17:51:23;3.65;;;2.47;;
50104;SDS011;47690;39.202;-77.198;2023-04-01T17:57:00;4.10;;;2.30;;
50104;SDS011;47690;39.202;-77.198;2023-04-01T18:08:56;3.10;;;2.20;;
50104;SDS011;47690;39.202;-77.198;2023-04-01T18:11:44;4.43;;;2.10;;
50104;SDS011;47690;39.202;-77.198;2023-04-01T18:14:28;2.70;;;2.05;;
50104;SDS011;47690;39.202;-77.198;2023-04-01T18:41:07;3.35;;;2.00;;
50104;SDS011;47690;39.202;-77.198;2023-04-01T18:56:38;2.35;;;1.90;;
50104;SDS011;47690;39.202;-77.198;2023-04-01T18:59:34;5.47;;;2.00;;
50104;SDS011;47690;39.202;-77.198;2023-04-01T19:07:52;5.88;;;2.20;;
50104;SDS011;47690;39.202;-77.198;2023-04-01T19:32:29;5.95;;;2.15;;
50104;SDS011;47690;39.202;-77.198;2023-04-01T19:41:50;3.35;;;2.00;;
50104;SDS011;47690;39.202;-77.198;2023-04-01T20:03:33;1.85;;;1.67;;
50104;SDS011;47690;39.202;-77.198;2023-04-01T20:11:20;4.80;;;1.90;;
50104;SDS011;47690;39.202;-77.198;2023-04-01T20:14:09;3.10;;;1.87;;
50104;SDS011;47690;39.202;-77.198;2023-04-01T20:19:29;4.03;;;2.08;;
50104;SDS011;47690;39.202;-77.198;2023-04-01T20:22:23;2.80;;;1.80;;
50104;SDS011;47690;39.202;-77.198;2023-04-01T20:37:48;3.55;;;1.95;;
50104;SDS011;47690;39.202;-77.198;2023-04-01T20:40:44;2.83;;;1.80;;
50104;SDS011;47690;39.202;-77.198;2023-04-01T20:48:53;4.80;;;1.90;;
50104;SDS011;47690;39.202;-77.198;2023-04-01T20:52:57;2.45;;;1.55;;
50104;SDS011;47690;39.202;-77.198;2023-04-01T21:01:44;3.03;;;1.88;;
50104;SDS011;47690;39.202;-77.198;2023-04-01T21:08:30;1.75;;;1.63;;
50104;SDS011;47690;39.202;-77.198;2023-04-01T21:37:33;2.10;;;1.63;;
50104;SDS011;47690;39.202;-77.198;2023-04-01T21:40:46;3.67;;;1.77;;
50104;SDS011;47690;39.202;-77.198;2023-04-01T21:52:53;3.75;;;1.77;;
50104;SDS011;47690;39.202;-77.198;2023-04-01T22:05:10;5.15;;;1.70;;
50104;SDS011;47690;39.202;-77.198;2023-04-01T22:08:24;3.43;;;1.70;;
50104;SDS011;47690;39.202;-77.198;2023-04-01T22:17:36;3.45;;;1.38;;
50104;SDS011;47690;39.202;-77.198;2023-04-01T22:20:33;3.28;;;1.48;;
50104;SDS011;47690;39.202;-77.198;2023-04-01T22:23:36;3.78;;;1.70;;
50104;SDS011;47690;39.202;-77.198;2023-04-01T22:28:58;4.32;;;1.30;;
50104;SDS011;47690;39.202;-77.198;2023-04-01T22:35:00;4.35;;;2.22;;
50104;SDS011;47690;39.202;-77.198;2023-04-01T22:51:00;3.45;;;1.88;;
50104;SDS011;47690;39.202;-77.198;2023-04-01T22:56:18;3.13;;;1.98;;
50104;SDS011;47690;39.202;-77.198;2023-04-01T22:59:06;3.47;;;1.90;;
50104;SDS011;47690;39.202;-77.198;2023-04-01T23:01:45;3.13;;;1.65;;
50104;SDS011;47690;39.202;-77.198;2023-04-01T23:04:48;3.78;;;1.80;;
50104;SDS011;47690;39.202;-77.198;2023-04-01T23:10:52;2.92;;;1.58;;
50104;SDS011;47690;39.202;-77.198;2023-04-01T23:16:08;4.50;;;1.52;;
50104;SDS011;47690;39.202;-77.198;2023-04-01T23:29:41;1.73;;;1.63;;
50104;SDS011;47690;39.202;-77.198;2023-04-01T23:32:15;2.67;;;1.55;;
50104;SDS011;47690;39.202;-77.198;2023-04-01T23:34:49;2.95;;;1.48;;
50104;SDS011;47690;39.202;-77.198;2023-04-01T23:37:26;2.97;;;1.40;;
50104;SDS011;47690;39.202;-77.198;2023-04-01T23:39:59;2.67;;;1.80;;
50104;SDS011;47690;39.202;-77.198;2023-04-01T23:42:33;2.75;;;1.70;;
50104;SDS011;47690;39.202;-77.198;2023-04-01T23:45:14;1.67;;;1.40;;
50104;SDS011;47690;39.202;-77.198;2023-04-01T23:47:48;3.90;;;1.70;;
50104;SDS011;47690;39.202;-77.198;2023-04-01T23:50:22;1.70;;;1.60;;
50104;SDS011;47690;39.202;-77.198;2023-04-01T23:53:08;1.63;;;1.42;;
50104;SDS011;47690;39.202;-77.198;2023-04-01T23:55:55;1.90;;;1.70;;
50104;SDS011;47690;39.202;-77.198;2023-04-01T23:58:38;1.50;;;1.40;;
